sensor_id;sensor_type;location;lat;lon;timestamp;temperature;humidity
30097;DHT22;16915;51.466;3.610;2023-05-07T00:00:16;15.10;99.90
30097;DHT22;16915;51.466;3.610;2023-05-07T00:02:44;15.10;99.90
30097;DHT22;16915;51.466;3.610;2023-05-07T00:05:10;15.00;99.90
30097;DHT22;16915;51.466;3.610;2023-05-07T00:07:35;15.00;99.90
30097;DHT22;16915;51.466;3.610;2023-05-07T00:10:01;15.00;99.90
30097;DHT22;16915;51.466;3.610;2023-05-07T00:12:26;15.00;99.90
30097;DHT22;16915;51.466;3.610;2023-05-07T00:14:52;15.10;99.90
30097;DHT22;16915;51.466;3.610;2023-05-07T00:17:17;15.10;99.90
30097;DHT22;16915;51.466;3.610;2023-05-07T00:19:43;15.10;99.90
30097;DHT22;16915;51.466;3.610;2023-05-07T00:22:08;15.10;99.90
30097;DHT22;16915;51.466;3.610;2023-05-07T00:24:34;15.10;99.90
30097;DHT22;16915;51.466;3.610;2023-05-07T00:26:59;15.10;99.90
30097;DHT22;16915;51.466;3.610;2023-05-07T00:29:25;15.10;99.90
30097;DHT22;16915;51.466;3.610;2023-05-07T00:31:51;15.10;99.90
30097;DHT22;16915;51.466;3.610;2023-05-07T00:34:16;15.10;99.90
30097;DHT22;16915;51.466;3.610;2023-05-07T00:36:42;15.20;99.90
30097;DHT22;16915;51.466;3.610;2023-05-07T00:39:07;15.10;99.90
30097;DHT22;16915;51.466;3.610;2023-05-07T00:41:33;15.10;99.90
30097;DHT22;16915;51.466;3.610;2023-05-07T00:43:58;15.10;99.90
30097;DHT22;16915;51.466;3.610;2023-05-07T00:46:24;15.20;99.90
30097;DHT22;16915;51.466;3.610;2023-05-07T00:48:49;15.10;99.90
30097;DHT22;16915;51.466;3.610;2023-05-07T00:51:15;15.10;99.90
30097;DHT22;16915;51.466;3.610;2023-05-07T00:53:41;15.10;99.90
30097;DHT22;16915;51.466;3.610;2023-05-07T00:56:06;15.10;99.90
30097;DHT22;16915;51.466;3.610;2023-05-07T00:58:32;15.10;99.90
30097;DHT22;16915;51.466;3.610;2023-05-07T01:00:58;15.00;99.90
30097;DHT22;16915;51.466;3.610;2023-05-07T01:03:24;15.00;99.90
30097;DHT22;16915;51.466;3.610;2023-05-07T01:05:49;14.90;99.90
30097;DHT22;16915;51.466;3.610;2023-05-07T01:08:16;14.90;99.90
30097;DHT22;16915;51.466;3.610;2023-05-07T01:10:41;14.80;99.90
30097;DHT22;16915;51.466;3.610;2023-05-07T01:13:11;14.80;99.90
30097;DHT22;16915;51.466;3.610;2023-05-07T01:15:37;14.70;99.90
30097;DHT22;16915;51.466;3.610;2023-05-07T01:18:03;14.70;99.90
30097;DHT22;16915;51.466;3.610;2023-05-07T01:20:29;14.60;99.90
30097;DHT22;16915;51.466;3.610;2023-05-07T01:22:54;14.50;99.90
30097;DHT22;16915;51.466;3.610;2023-05-07T01:25:21;14.50;99.90
30097;DHT22;16915;51.466;3.610;2023-05-07T01:27:47;14.50;99.90
30097;DHT22;16915;51.466;3.610;2023-05-07T01:30:12;14.40;99.90
30097;DHT22;16915;51.466;3.610;2023-05-07T01:32:59;14.40;99.90
30097;DHT22;16915;51.466;3.610;2023-05-07T01:35:28;14.40;99.90
30097;DHT22;16915;51.466;3.610;2023-05-07T01:37:54;14.30;99.90
30097;DHT22;16915;51.466;3.610;2023-05-07T01:40:19;14.40;99.90
30097;DHT22;16915;51.466;3.610;2023-05-07T01:42:45;14.30;99.90
30097;DHT22;16915;51.466;3.610;2023-05-07T01:45:11;14.30;99.90
30097;DHT22;16915;51.466;3.610;2023-05-07T01:47:37;14.30;99.90
30097;DHT22;16915;51.466;3.610;2023-05-07T01:50:03;14.20;99.90
30097;DHT22;16915;51.466;3.610;2023-05-07T01:52:29;14.20;99.90
30097;DHT22;16915;51.466;3.610;2023-05-07T01:54:55;14.20;99.90
30097;DHT22;16915;51.466;3.610;2023-05-07T01:57:20;14.20;99.90
30097;DHT22;16915;51.466;3.610;2023-05-07T01:59:46;14.20;99.90
30097;DHT22;16915;51.466;3.610;2023-05-07T02:02:11;14.20;99.90
30097;DHT22;16915;51.466;3.610;2023-05-07T02:04:37;14.20;99.90
30097;DHT22;16915;51.466;3.610;2023-05-07T02:07:02;14.10;99.90
30097;DHT22;16915;51.466;3.610;2023-05-07T02:09:27;14.10;99.90
30097;DHT22;16915;51.466;3.610;2023-05-07T02:11:53;14.20;99.90
30097;DHT22;16915;51.466;3.610;2023-05-07T02:14:18;14.10;99.90
30097;DHT22;16915;51.466;3.610;2023-05-07T02:16:45;14.10;99.90
30097;DHT22;16915;51.466;3.610;2023-05-07T02:19:10;14.10;99.90
30097;DHT22;16915;51.466;3.610;2023-05-07T02:21:36;14.00;99.90
30097;DHT22;16915;51.466;3.610;2023-05-07T02:24:01;14.00;99.90
30097;DHT22;16915;51.466;3.610;2023-05-07T02:26:27;14.00;99.90
30097;DHT22;16915;51.466;3.610;2023-05-07T02:28:52;14.00;99.90
30097;DHT22;16915;51.466;3.610;2023-05-07T02:31:19;14.00;99.90
30097;DHT22;16915;51.466;3.610;2023-05-07T02:33:44;14.00;99.90
30097;DHT22;16915;51.466;3.610;2023-05-07T02:36:11;13.90;99.90
30097;DHT22;16915;51.466;3.610;2023-05-07T02:38:37;13.90;99.90
30097;DHT22;16915;51.466;3.610;2023-05-07T02:41:02;13.90;99.90
30097;DHT22;16915;51.466;3.610;2023-05-07T02:43:28;13.90;99.90
30097;DHT22;16915;51.466;3.610;2023-05-07T02:46:00;13.90;99.90
30097;DHT22;16915;51.466;3.610;2023-05-07T02:48:26;13.90;99.90
30097;DHT22;16915;51.466;3.610;2023-05-07T02:50:52;14.00;99.90
30097;DHT22;16915;51.466;3.610;2023-05-07T02:53:17;14.00;99.90
30097;DHT22;16915;51.466;3.610;2023-05-07T02:55:43;14.00;99.90
30097;DHT22;16915;51.466;3.610;2023-05-07T02:58:08;14.20;99.90
30097;DHT22;16915;51.466;3.610;2023-05-07T03:00:34;14.10;99.90
30097;DHT22;16915;51.466;3.610;2023-05-07T03:02:59;14.20;99.90
30097;DHT22;16915;51.466;3.610;2023-05-07T03:05:25;14.20;99.90
30097;DHT22;16915;51.466;3.610;2023-05-07T03:07:50;14.30;99.90
30097;DHT22;16915;51.466;3.610;2023-05-07T03:10:16;14.30;99.90
30097;DHT22;16915;51.466;3.610;2023-05-07T03:12:41;14.40;99.90
30097;DHT22;16915;51.466;3.610;2023-05-07T03:15:07;14.30;99.90
30097;DHT22;16915;51.466;3.610;2023-05-07T03:17:33;14.40;99.90
30097;DHT22;16915;51.466;3.610;2023-05-07T03:19:58;14.40;99.90
30097;DHT22;16915;51.466;3.610;2023-05-07T03:22:24;14.40;99.90
30097;DHT22;16915;51.466;3.610;2023-05-07T03:24:49;14.40;99.90
30097;DHT22;16915;51.466;3.610;2023-05-07T03:27:15;14.40;99.90
30097;DHT22;16915;51.466;3.610;2023-05-07T03:29:40;14.40;99.90
30097;DHT22;16915;51.466;3.610;2023-05-07T03:32:05;14.40;99.90
30097;DHT22;16915;51.466;3.610;2023-05-07T03:34:31;14.40;99.90
30097;DHT22;16915;51.466;3.610;2023-05-07T03:36:57;14.40;99.90
30097;DHT22;16915;51.466;3.610;2023-05-07T03:39:22;14.40;99.90
30097;DHT22;16915;51.466;3.610;2023-05-07T03:41:48;14.40;99.90
30097;DHT22;16915;51.466;3.610;2023-05-07T03:44:13;14.40;99.90
30097;DHT22;16915;51.466;3.610;2023-05-07T03:46:39;14.40;99.90
30097;DHT22;16915;51.466;3.610;2023-05-07T03:49:04;14.40;99.90
30097;DHT22;16915;51.466;3.610;2023-05-07T03:51:30;14.40;99.90
30097;DHT22;16915;51.466;3.610;2023-05-07T03:53:55;14.40;99.90
30097;DHT22;16915;51.466;3.610;2023-05-07T03:56:22;14.40;99.90
30097;DHT22;16915;51.466;3.610;2023-05-07T03:58:48;14.40;99.90
30097;DHT22;16915;51.466;3.610;2023-05-07T04:01:13;14.40;99.90
30097;DHT22;16915;51.466;3.610;2023-05-07T04:03:39;14.40;99.90
30097;DHT22;16915;51.466;3.610;2023-05-07T04:06:04;14.30;99.90
30097;DHT22;16915;51.466;3.610;2023-05-07T04:08:30;14.30;99.90
30097;DHT22;16915;51.466;3.610;2023-05-07T04:10:56;14.30;99.90
30097;DHT22;16915;51.466;3.610;2023-05-07T04:13:22;14.20;99.90
30097;DHT22;16915;51.466;3.610;2023-05-07T04:15:47;14.30;99.90
30097;DHT22;16915;51.466;3.610;2023-05-07T04:18:14;14.20;99.90
30097;DHT22;16915;51.466;3.610;2023-05-07T04:20:39;14.30;99.90
30097;DHT22;16915;51.466;3.610;2023-05-07T04:23:05;14.30;99.90
30097;DHT22;16915;51.466;3.610;2023-05-07T04:25:30;14.30;99.90
30097;DHT22;16915;51.466;3.610;2023-05-07T04:27:56;14.30;99.90
30097;DHT22;16915;51.466;3.610;2023-05-07T04:30:21;14.30;99.90
30097;DHT22;16915;51.466;3.610;2023-05-07T04:32:47;14.30;99.90
30097;DHT22;16915;51.466;3.610;2023-05-07T04:35:13;14.40;99.90
30097;DHT22;16915;51.466;3.610;2023-05-07T04:37:39;14.40;99.90
30097;DHT22;16915;51.466;3.610;2023-05-07T04:40:05;14.40;99.90
30097;DHT22;16915;51.466;3.610;2023-05-07T04:42:31;14.50;99.90
30097;DHT22;16915;51.466;3.610;2023-05-07T04:44:56;14.50;99.90
30097;DHT22;16915;51.466;3.610;2023-05-07T04:47:22;14.60;99.90
30097;DHT22;16915;51.466;3.610;2023-05-07T04:49:47;14.60;99.90
30097;DHT22;16915;51.466;3.610;2023-05-07T04:52:12;14.70;99.90
30097;DHT22;16915;51.466;3.610;2023-05-07T04:54:38;14.70;99.90
30097;DHT22;16915;51.466;3.610;2023-05-07T04:57:04;14.80;99.90
30097;DHT22;16915;51.466;3.610;2023-05-07T04:59:30;14.90;99.90
30097;DHT22;16915;51.466;3.610;2023-05-07T05:01:55;14.90;99.90
30097;DHT22;16915;51.466;3.610;2023-05-07T05:04:20;15.00;99.90
30097;DHT22;16915;51.466;3.610;2023-05-07T05:06:46;15.00;99.90
30097;DHT22;16915;51.466;3.610;2023-05-07T05:09:11;15.10;99.90
30097;DHT22;16915;51.466;3.610;2023-05-07T05:11:37;15.20;99.90
30097;DHT22;16915;51.466;3.610;2023-05-07T05:14:02;15.20;99.90
30097;DHT22;16915;51.466;3.610;2023-05-07T05:16:28;15.20;99.90
30097;DHT22;16915;51.466;3.610;2023-05-07T05:18:53;15.20;99.90
30097;DHT22;16915;51.466;3.610;2023-05-07T05:21:20;15.20;99.90
30097;DHT22;16915;51.466;3.610;2023-05-07T05:23:45;15.30;99.90
30097;DHT22;16915;51.466;3.610;2023-05-07T05:26:11;15.30;99.90
30097;DHT22;16915;51.466;3.610;2023-05-07T05:28:36;15.30;99.90
30097;DHT22;16915;51.466;3.610;2023-05-07T05:31:02;15.30;99.90
30097;DHT22;16915;51.466;3.610;2023-05-07T05:33:27;15.30;99.90
30097;DHT22;16915;51.466;3.610;2023-05-07T05:35:56;15.30;99.90
30097;DHT22;16915;51.466;3.610;2023-05-07T05:38:21;15.30;99.90
30097;DHT22;16915;51.466;3.610;2023-05-07T05:40:47;15.20;99.90
30097;DHT22;16915;51.466;3.610;2023-05-07T05:43:13;15.30;99.90
30097;DHT22;16915;51.466;3.610;2023-05-07T05:45:38;15.30;99.90
30097;DHT22;16915;51.466;3.610;2023-05-07T05:48:04;15.20;99.90
30097;DHT22;16915;51.466;3.610;2023-05-07T05:50:29;15.30;99.90
30097;DHT22;16915;51.466;3.610;2023-05-07T05:52:55;15.40;99.90
30097;DHT22;16915;51.466;3.610;2023-05-07T05:55:21;15.40;99.90
30097;DHT22;16915;51.466;3.610;2023-05-07T05:57:47;15.50;99.90
30097;DHT22;16915;51.466;3.610;2023-05-07T06:00:13;15.50;99.90
30097;DHT22;16915;51.466;3.610;2023-05-07T06:02:38;15.50;99.90
30097;DHT22;16915;51.466;3.610;2023-05-07T06:05:04;15.50;99.90
30097;DHT22;16915;51.466;3.610;2023-05-07T06:07:30;15.60;99.90
30097;DHT22;16915;51.466;3.610;2023-05-07T06:09:55;15.60;99.90
30097;DHT22;16915;51.466;3.610;2023-05-07T06:12:21;15.70;99.90
30097;DHT22;16915;51.466;3.610;2023-05-07T06:14:46;15.70;99.90
30097;DHT22;16915;51.466;3.610;2023-05-07T06:17:12;15.80;99.90
30097;DHT22;16915;51.466;3.610;2023-05-07T06:19:37;15.80;99.90
30097;DHT22;16915;51.466;3.610;2023-05-07T06:22:02;15.90;99.90
30097;DHT22;16915;51.466;3.610;2023-05-07T06:24:28;15.90;99.90
30097;DHT22;16915;51.466;3.610;2023-05-07T06:26:53;16.00;99.90
30097;DHT22;16915;51.466;3.610;2023-05-07T06:29:19;15.90;99.90
30097;DHT22;16915;51.466;3.610;2023-05-07T06:31:44;16.00;99.90
30097;DHT22;16915;51.466;3.610;2023-05-07T06:34:10;15.90;99.90
30097;DHT22;16915;51.466;3.610;2023-05-07T06:36:39;16.00;99.90
30097;DHT22;16915;51.466;3.610;2023-05-07T06:39:05;16.00;99.90
30097;DHT22;16915;51.466;3.610;2023-05-07T06:41:30;16.10;99.90
30097;DHT22;16915;51.466;3.610;2023-05-07T06:43:56;16.20;99.90
30097;DHT22;16915;51.466;3.610;2023-05-07T06:46:21;16.30;99.90
30097;DHT22;16915;51.466;3.610;2023-05-07T06:48:47;16.40;99.90
30097;DHT22;16915;51.466;3.610;2023-05-07T06:51:12;16.50;99.90
30097;DHT22;16915;51.466;3.610;2023-05-07T06:53:38;16.50;99.90
30097;DHT22;16915;51.466;3.610;2023-05-07T06:56:03;16.50;99.90
30097;DHT22;16915;51.466;3.610;2023-05-07T06:58:29;16.60;99.90
30097;DHT22;16915;51.466;3.610;2023-05-07T07:00:54;16.70;99.90
30097;DHT22;16915;51.466;3.610;2023-05-07T07:03:20;16.70;99.90
30097;DHT22;16915;51.466;3.610;2023-05-07T07:05:46;16.80;99.90
30097;DHT22;16915;51.466;3.610;2023-05-07T07:08:11;16.80;99.90
30097;DHT22;16915;51.466;3.610;2023-05-07T07:10:37;16.80;99.90
30097;DHT22;16915;51.466;3.610;2023-05-07T07:13:02;16.80;99.90
30097;DHT22;16915;51.466;3.610;2023-05-07T07:15:28;16.80;99.90
30097;DHT22;16915;51.466;3.610;2023-05-07T07:17:53;16.90;99.90
30097;DHT22;16915;51.466;3.610;2023-05-07T07:20:19;17.00;99.90
30097;DHT22;16915;51.466;3.610;2023-05-07T07:22:44;16.90;99.90
30097;DHT22;16915;51.466;3.610;2023-05-07T07:25:10;16.80;99.90
30097;DHT22;16915;51.466;3.610;2023-05-07T07:27:36;16.70;99.90
30097;DHT22;16915;51.466;3.610;2023-05-07T07:30:02;16.70;99.90
30097;DHT22;16915;51.466;3.610;2023-05-07T07:32:27;16.70;99.90
30097;DHT22;16915;51.466;3.610;2023-05-07T07:34:53;16.70;99.90
30097;DHT22;16915;51.466;3.610;2023-05-07T07:37:18;16.60;99.90
30097;DHT22;16915;51.466;3.610;2023-05-07T07:39:44;16.60;99.90
30097;DHT22;16915;51.466;3.610;2023-05-07T07:42:09;16.60;99.90
30097;DHT22;16915;51.466;3.610;2023-05-07T07:44:35;16.60;99.90
30097;DHT22;16915;51.466;3.610;2023-05-07T07:47:00;16.60;99.90
30097;DHT22;16915;51.466;3.610;2023-05-07T07:49:26;16.70;99.90
30097;DHT22;16915;51.466;3.610;2023-05-07T07:51:51;16.70;99.90
30097;DHT22;16915;51.466;3.610;2023-05-07T07:54:17;16.70;99.90
30097;DHT22;16915;51.466;3.610;2023-05-07T07:56:42;16.80;99.90
30097;DHT22;16915;51.466;3.610;2023-05-07T07:59:08;16.90;99.90
30097;DHT22;16915;51.466;3.610;2023-05-07T08:01:33;17.00;99.90
30097;DHT22;16915;51.466;3.610;2023-05-07T08:03:59;17.20;99.90
30097;DHT22;16915;51.466;3.610;2023-05-07T08:06:24;17.30;99.90
30097;DHT22;16915;51.466;3.610;2023-05-07T08:08:51;17.40;99.90
30097;DHT22;16915;51.466;3.610;2023-05-07T08:11:16;17.60;99.90
30097;DHT22;16915;51.466;3.610;2023-05-07T08:13:42;17.70;99.90
30097;DHT22;16915;51.466;3.610;2023-05-07T08:16:07;17.70;99.90
30097;DHT22;16915;51.466;3.610;2023-05-07T08:18:33;17.80;99.90
30097;DHT22;16915;51.466;3.610;2023-05-07T08:20:58;17.90;99.90
30097;DHT22;16915;51.466;3.610;2023-05-07T08:23:24;18.00;99.90
30097;DHT22;16915;51.466;3.610;2023-05-07T08:25:49;18.00;99.90
30097;DHT22;16915;51.466;3.610;2023-05-07T08:28:16;18.00;99.90
30097;DHT22;16915;51.466;3.610;2023-05-07T08:30:41;18.00;99.90
30097;DHT22;16915;51.466;3.610;2023-05-07T08:33:08;18.10;99.90
30097;DHT22;16915;51.466;3.610;2023-05-07T08:35:33;18.10;99.90
30097;DHT22;16915;51.466;3.610;2023-05-07T08:37:59;18.20;99.90
30097;DHT22;16915;51.466;3.610;2023-05-07T08:40:25;18.30;99.90
30097;DHT22;16915;51.466;3.610;2023-05-07T08:42:51;18.50;99.90
30097;DHT22;16915;51.466;3.610;2023-05-07T08:45:17;18.70;99.90
30097;DHT22;16915;51.466;3.610;2023-05-07T08:47:44;19.10;99.90
30097;DHT22;16915;51.466;3.610;2023-05-07T08:50:10;19.30;99.90
30097;DHT22;16915;51.466;3.610;2023-05-07T08:52:36;19.40;99.90
30097;DHT22;16915;51.466;3.610;2023-05-07T08:55:02;19.30;99.90
30097;DHT22;16915;51.466;3.610;2023-05-07T08:57:28;19.30;99.90
30097;DHT22;16915;51.466;3.610;2023-05-07T08:59:53;19.50;99.90
30097;DHT22;16915;51.466;3.610;2023-05-07T09:02:19;19.60;99.90
30097;DHT22;16915;51.466;3.610;2023-05-07T09:04:44;19.60;99.90
30097;DHT22;16915;51.466;3.610;2023-05-07T09:07:10;19.50;99.90
30097;DHT22;16915;51.466;3.610;2023-05-07T09:09:35;19.50;99.90
30097;DHT22;16915;51.466;3.610;2023-05-07T09:12:01;19.50;99.90
30097;DHT22;16915;51.466;3.610;2023-05-07T09:14:27;19.50;99.90
30097;DHT22;16915;51.466;3.610;2023-05-07T09:16:54;19.30;99.90
30097;DHT22;16915;51.466;3.610;2023-05-07T09:19:23;19.30;99.90
30097;DHT22;16915;51.466;3.610;2023-05-07T09:21:49;19.30;99.90
30097;DHT22;16915;51.466;3.610;2023-05-07T09:24:15;19.30;99.90
30097;DHT22;16915;51.466;3.610;2023-05-07T09:26:41;19.40;99.90
30097;DHT22;16915;51.466;3.610;2023-05-07T09:29:07;19.40;99.90
30097;DHT22;16915;51.466;3.610;2023-05-07T09:31:36;19.40;99.90
30097;DHT22;16915;51.466;3.610;2023-05-07T09:34:01;19.60;99.90
30097;DHT22;16915;51.466;3.610;2023-05-07T09:36:27;19.80;99.90
30097;DHT22;16915;51.466;3.610;2023-05-07T09:38:52;19.60;99.90
30097;DHT22;16915;51.466;3.610;2023-05-07T09:41:18;19.50;99.90
30097;DHT22;16915;51.466;3.610;2023-05-07T09:43:43;19.40;99.90
30097;DHT22;16915;51.466;3.610;2023-05-07T09:48:36;19.30;99.90
30097;DHT22;16915;51.466;3.610;2023-05-07T09:51:02;19.50;99.90
30097;DHT22;16915;51.466;3.610;2023-05-07T09:53:29;19.50;99.90
30097;DHT22;16915;51.466;3.610;2023-05-07T09:55:54;19.50;99.90
30097;DHT22;16915;51.466;3.610;2023-05-07T09:58:21;19.50;99.90
30097;DHT22;16915;51.466;3.610;2023-05-07T10:00:48;19.60;99.90
30097;DHT22;16915;51.466;3.610;2023-05-07T10:03:15;19.50;99.90
30097;DHT22;16915;51.466;3.610;2023-05-07T10:05:41;19.50;99.90
30097;DHT22;16915;51.466;3.610;2023-05-07T10:08:07;19.70;99.90
30097;DHT22;16915;51.466;3.610;2023-05-07T10:10:33;19.60;99.90
30097;DHT22;16915;51.466;3.610;2023-05-07T10:12:59;19.50;99.90
30097;DHT22;16915;51.466;3.610;2023-05-07T10:15:25;19.30;99.90
30097;DHT22;16915;51.466;3.610;2023-05-07T10:17:51;19.20;99.90
30097;DHT22;16915;51.466;3.610;2023-05-07T10:20:18;19.20;99.90
30097;DHT22;16915;51.466;3.610;2023-05-07T10:22:45;19.20;99.90
30097;DHT22;16915;51.466;3.610;2023-05-07T10:25:18;19.30;99.90
30097;DHT22;16915;51.466;3.610;2023-05-07T10:27:44;19.20;99.90
30097;DHT22;16915;51.466;3.610;2023-05-07T10:30:24;19.20;99.90
30097;DHT22;16915;51.466;3.610;2023-05-07T10:32:53;19.10;99.90
30097;DHT22;16915;51.466;3.610;2023-05-07T10:35:21;19.10;99.90
30097;DHT22;16915;51.466;3.610;2023-05-07T10:37:48;19.10;99.90
30097;DHT22;16915;51.466;3.610;2023-05-07T10:40:13;19.50;99.90
30097;DHT22;16915;51.466;3.610;2023-05-07T10:42:49;19.70;99.90
30097;DHT22;16915;51.466;3.610;2023-05-07T10:45:18;19.60;99.90
30097;DHT22;16915;51.466;3.610;2023-05-07T10:50:28;19.50;99.90
30097;DHT22;16915;51.466;3.610;2023-05-07T10:55:37;19.40;99.90
30097;DHT22;16915;51.466;3.610;2023-05-07T11:00:47;19.40;99.90
30097;DHT22;16915;51.466;3.610;2023-05-07T11:03:13;19.30;99.90
30097;DHT22;16915;51.466;3.610;2023-05-07T11:05:40;19.20;99.90
30097;DHT22;16915;51.466;3.610;2023-05-07T11:08:06;19.20;99.90
30097;DHT22;16915;51.466;3.610;2023-05-07T11:13:15;19.60;99.90
30097;DHT22;16915;51.466;3.610;2023-05-07T11:15:42;19.90;99.90
30097;DHT22;16915;51.466;3.610;2023-05-07T11:18:08;20.30;99.90
30097;DHT22;16915;51.466;3.610;2023-05-07T11:20:53;20.50;99.90
30097;DHT22;16915;51.466;3.610;2023-05-07T11:26:00;20.40;99.90
30097;DHT22;16915;51.466;3.610;2023-05-07T11:28:28;20.40;99.90
30097;DHT22;16915;51.466;3.610;2023-05-07T11:30:53;20.70;99.90
30097;DHT22;16915;51.466;3.610;2023-05-07T11:33:19;21.20;99.90
30097;DHT22;16915;51.466;3.610;2023-05-07T11:35:45;21.70;99.90
30097;DHT22;16915;51.466;3.610;2023-05-07T11:38:11;21.80;99.90
30097;DHT22;16915;51.466;3.610;2023-05-07T11:41:19;22.00;99.90
30097;DHT22;16915;51.466;3.610;2023-05-07T11:43:27;22.20;99.90
30097;DHT22;16915;51.466;3.610;2023-05-07T11:45:52;22.20;99.90
30097;DHT22;16915;51.466;3.610;2023-05-07T11:48:18;22.10;99.90
30097;DHT22;16915;51.466;3.610;2023-05-07T11:50:51;21.50;99.90
30097;DHT22;16915;51.466;3.610;2023-05-07T11:53:18;21.10;99.90
30097;DHT22;16915;51.466;3.610;2023-05-07T11:55:43;21.10;99.90
30097;DHT22;16915;51.466;3.610;2023-05-07T11:58:10;21.30;99.90
30097;DHT22;16915;51.466;3.610;2023-05-07T12:00:35;21.40;99.90
30097;DHT22;16915;51.466;3.610;2023-05-07T12:03:04;21.30;99.90
30097;DHT22;16915;51.466;3.610;2023-05-07T12:05:30;21.30;99.90
30097;DHT22;16915;51.466;3.610;2023-05-07T12:07:58;21.30;99.90
30097;DHT22;16915;51.466;3.610;2023-05-07T12:10:24;21.20;99.90
30097;DHT22;16915;51.466;3.610;2023-05-07T12:12:50;21.10;99.90
30097;DHT22;16915;51.466;3.610;2023-05-07T12:15:16;21.10;99.90
30097;DHT22;16915;51.466;3.610;2023-05-07T12:17:41;21.30;99.90
30097;DHT22;16915;51.466;3.610;2023-05-07T12:20:07;21.50;99.90
30097;DHT22;16915;51.466;3.610;2023-05-07T12:22:33;21.90;99.90
30097;DHT22;16915;51.466;3.610;2023-05-07T12:24:58;22.80;99.90
30097;DHT22;16915;51.466;3.610;2023-05-07T12:27:24;24.00;99.90
30097;DHT22;16915;51.466;3.610;2023-05-07T12:29:50;24.90;99.90
30097;DHT22;16915;51.466;3.610;2023-05-07T12:32:16;25.10;99.90
30097;DHT22;16915;51.466;3.610;2023-05-07T12:34:42;25.30;99.90
30097;DHT22;16915;51.466;3.610;2023-05-07T12:37:07;25.70;99.90
30097;DHT22;16915;51.466;3.610;2023-05-07T12:39:33;25.90;99.90
30097;DHT22;16915;51.466;3.610;2023-05-07T12:41:59;26.00;99.90
30097;DHT22;16915;51.466;3.610;2023-05-07T12:44:31;26.20;99.90
30097;DHT22;16915;51.466;3.610;2023-05-07T12:46:57;26.00;99.90
30097;DHT22;16915;51.466;3.610;2023-05-07T12:49:23;25.60;99.90
30097;DHT22;16915;51.466;3.610;2023-05-07T12:51:48;25.50;99.90
30097;DHT22;16915;51.466;3.610;2023-05-07T12:54:37;25.20;99.90
30097;DHT22;16915;51.466;3.610;2023-05-07T12:57:04;25.00;99.90
30097;DHT22;16915;51.466;3.610;2023-05-07T12:59:33;24.40;99.90
30097;DHT22;16915;51.466;3.610;2023-05-07T13:01:59;24.10;99.90
30097;DHT22;16915;51.466;3.610;2023-05-07T13:04:24;23.90;99.90
30097;DHT22;16915;51.466;3.610;2023-05-07T13:06:50;23.80;99.90
30097;DHT22;16915;51.466;3.610;2023-05-07T13:09:15;23.80;99.90
30097;DHT22;16915;51.466;3.610;2023-05-07T13:11:41;23.60;99.90
30097;DHT22;16915;51.466;3.610;2023-05-07T13:14:06;23.30;99.90
30097;DHT22;16915;51.466;3.610;2023-05-07T13:16:32;22.90;99.90
30097;DHT22;16915;51.466;3.610;2023-05-07T13:18:57;22.80;99.90
30097;DHT22;16915;51.466;3.610;2023-05-07T13:21:23;23.00;99.90
30097;DHT22;16915;51.466;3.610;2023-05-07T13:23:48;23.10;99.90
30097;DHT22;16915;51.466;3.610;2023-05-07T13:26:14;23.40;99.90
30097;DHT22;16915;51.466;3.610;2023-05-07T13:28:39;23.30;99.90
30097;DHT22;16915;51.466;3.610;2023-05-07T13:31:05;23.40;99.90
30097;DHT22;16915;51.466;3.610;2023-05-07T13:33:31;23.60;99.90
30097;DHT22;16915;51.466;3.610;2023-05-07T13:35:56;23.60;99.90
30097;DHT22;16915;51.466;3.610;2023-05-07T13:38:22;23.60;99.90
30097;DHT22;16915;51.466;3.610;2023-05-07T13:40:48;23.60;99.90
30097;DHT22;16915;51.466;3.610;2023-05-07T13:43:13;23.60;99.90
30097;DHT22;16915;51.466;3.610;2023-05-07T13:45:39;23.70;99.90
30097;DHT22;16915;51.466;3.610;2023-05-07T13:48:05;23.80;99.90
30097;DHT22;16915;51.466;3.610;2023-05-07T13:50:30;23.80;99.90
30097;DHT22;16915;51.466;3.610;2023-05-07T13:52:56;23.80;99.90
30097;DHT22;16915;51.466;3.610;2023-05-07T13:55:22;23.60;99.90
30097;DHT22;16915;51.466;3.610;2023-05-07T13:57:53;23.70;99.90
30097;DHT22;16915;51.466;3.610;2023-05-07T14:00:19;23.70;99.90
30097;DHT22;16915;51.466;3.610;2023-05-07T14:02:45;23.90;99.90
30097;DHT22;16915;51.466;3.610;2023-05-07T14:05:10;24.00;99.90
30097;DHT22;16915;51.466;3.610;2023-05-07T14:07:36;24.50;99.90
30097;DHT22;16915;51.466;3.610;2023-05-07T14:10:01;25.00;99.90
30097;DHT22;16915;51.466;3.610;2023-05-07T14:12:27;25.30;99.90
30097;DHT22;16915;51.466;3.610;2023-05-07T14:14:53;25.40;99.90
30097;DHT22;16915;51.466;3.610;2023-05-07T14:17:18;25.50;99.90
30097;DHT22;16915;51.466;3.610;2023-05-07T14:19:45;25.60;99.90
30097;DHT22;16915;51.466;3.610;2023-05-07T14:22:10;26.40;99.90
30097;DHT22;16915;51.466;3.610;2023-05-07T14:24:36;27.40;99.90
30097;DHT22;16915;51.466;3.610;2023-05-07T14:27:01;27.70;99.90
30097;DHT22;16915;51.466;3.610;2023-05-07T14:29:27;27.20;99.90
30097;DHT22;16915;51.466;3.610;2023-05-07T14:31:53;26.30;99.90
30097;DHT22;16915;51.466;3.610;2023-05-07T14:34:18;25.50;99.90
30097;DHT22;16915;51.466;3.610;2023-05-07T14:36:44;24.90;99.90
30097;DHT22;16915;51.466;3.610;2023-05-07T14:39:09;24.50;99.90
30097;DHT22;16915;51.466;3.610;2023-05-07T14:41:35;24.20;99.90
30097;DHT22;16915;51.466;3.610;2023-05-07T14:44:00;24.30;99.90
30097;DHT22;16915;51.466;3.610;2023-05-07T14:46:26;24.30;99.90
30097;DHT22;16915;51.466;3.610;2023-05-07T14:48:52;24.30;99.90
30097;DHT22;16915;51.466;3.610;2023-05-07T14:51:18;24.30;99.90
30097;DHT22;16915;51.466;3.610;2023-05-07T14:53:43;24.20;99.90
30097;DHT22;16915;51.466;3.610;2023-05-07T14:56:08;24.20;99.90
30097;DHT22;16915;51.466;3.610;2023-05-07T14:58:34;24.10;99.90
30097;DHT22;16915;51.466;3.610;2023-05-07T15:01:00;23.90;99.90
30097;DHT22;16915;51.466;3.610;2023-05-07T15:03:25;23.70;99.90
30097;DHT22;16915;51.466;3.610;2023-05-07T15:05:51;23.60;99.90
30097;DHT22;16915;51.466;3.610;2023-05-07T15:08:17;23.40;99.90
30097;DHT22;16915;51.466;3.610;2023-05-07T15:10:42;23.20;99.90
30097;DHT22;16915;51.466;3.610;2023-05-07T15:13:08;23.10;99.90
30097;DHT22;16915;51.466;3.610;2023-05-07T15:15:34;23.10;99.90
30097;DHT22;16915;51.466;3.610;2023-05-07T15:17:59;23.10;99.90
30097;DHT22;16915;51.466;3.610;2023-05-07T15:20:25;23.30;99.90
30097;DHT22;16915;51.466;3.610;2023-05-07T15:22:51;23.60;99.90
30097;DHT22;16915;51.466;3.610;2023-05-07T15:25:16;24.20;99.90
30097;DHT22;16915;51.466;3.610;2023-05-07T15:27:42;24.40;99.90
30097;DHT22;16915;51.466;3.610;2023-05-07T15:30:07;24.30;99.90
30097;DHT22;16915;51.466;3.610;2023-05-07T15:32:35;23.80;99.90
30097;DHT22;16915;51.466;3.610;2023-05-07T15:35:01;23.60;99.90
30097;DHT22;16915;51.466;3.610;2023-05-07T15:37:26;23.50;99.90